Terminal Aerodrome Forecast
Issued by NWS

Home | Current Version | Previous Version | Text Only | Print | Product List | Glossary On
Versions: 1 2 3 4 5 6 7 8 9 10 11 12 13 14 15 16 17 18 19 20 21 22 23 24 25 26 27 28 29 30 31
526
FTUS41 KRNK 141722
TAFLWB
TAF
KLWB 141722Z 1418/1518 00000KT P6SM BKN035
     FM142100 14005KT P6SM -SN SCT020 OVC050
     FM150100 13005KT 2SM -SN BR OVC020
     FM150700 06004KT 1SM -SN BR OVC009
     FM151300 VRB03KT 1/2SM SN FG OVC003=

USA.gov is the U.S. government's official web portal to all federal, state and local government web resources and services.